Time;durP1;ratioP1;P1;durP2;ratioP2;P2;SDS_P1;SDS_P2;PMS_P1;PMS_P2;Temp;Humidity;BMP_temperature;BMP_pressure;BME280_temperature;BME280_humidity;BME280_pressure;Samples;Min_cycle;Max_cycle;Signal;HPM_P1;HPM_P2
2021/07/27 00:00:52;;;;;;;12.20;7.83;;;;;;;20.45;65.87;99903.03;2047369;86;27883;-66
2021/07/27 00:03:54;;;;;;;9.43;7.78;;;;;;;20.46;65.94;99898.82;2047260;86;28669;-66
2021/07/27 00:06:57;;;;;;;10.08;7.90;;;;;;;20.47;65.94;99891.02;2047579;86;31052;-66
2021/07/27 00:10:00;;;;;;;15.85;7.92;;;;;;;20.49;66.01;99890.84;2047692;86;33049;-66
2021/07/27 00:13:08;;;;;;;9.05;7.67;;;;;;;20.44;66.04;99890.44;2047678;86;29328;-65
2021/07/27 00:16:13;;;;;;;9.93;7.17;;;;;;;20.46;66.12;99902.90;2045333;86;27810;-65
2021/07/27 00:19:17;;;;;;;8.98;7.08;;;;;;;20.44;66.30;99898.11;2047731;86;28698;-65
2021/07/27 00:22:21;;;;;;;9.23;8.20;;;;;;;20.43;66.58;99895.03;2047424;86;31039;-65
2021/07/27 00:25:24;;;;;;;9.85;8.33;;;;;;;20.30;66.53;99881.77;2047177;86;33092;-65
2021/07/27 00:28:29;;;;;;;9.03;7.17;;;;;;;20.34;66.79;99895.95;2047271;86;29403;-65
2021/07/27 00:31:32;;;;;;;11.88;7.65;;;;;;;20.21;67.06;99879.95;2029135;86;27995;-65
2021/07/27 00:34:37;;;;;;;8.50;6.72;;;;;;;20.28;67.07;99896.02;2047737;85;28765;-66
2021/07/27 00:37:45;;;;;;;8.43;6.62;;;;;;;20.24;67.21;99891.91;2044409;86;31122;-65
2021/07/27 00:40:49;;;;;;;8.25;6.55;;;;;;;20.23;67.32;99900.20;2047408;86;33189;-66
2021/07/27 00:43:53;;;;;;;8.93;7.17;;;;;;;20.21;67.40;99898.12;2047680;86;29433;-66
2021/07/27 00:46:57;;;;;;;12.98;6.85;;;;;;;20.20;67.45;99895.92;2047474;86;27690;-66
2021/07/27 00:50:01;;;;;;;8.30;6.30;;;;;;;20.17;67.60;99885.33;2028682;86;28690;-66
2021/07/27 00:53:05;;;;;;;10.58;6.90;;;;;;;20.12;67.67;99879.47;2050858;86;34783;-66
2021/07/27 00:56:10;;;;;;;8.05;7.25;;;;;;;20.12;67.66;99882.19;2052002;85;33122;-66
2021/07/27 00:59:15;;;;;;;6.87;5.90;;;;;;;20.06;67.89;99879.57;2062158;86;29413;-66
2021/07/27 01:02:19;;;;;;;8.58;6.58;;;;;;;20.02;67.87;99886.33;2062434;86;27871;-66
2021/07/27 01:05:23;;;;;;;8.55;6.70;;;;;;;20.00;68.06;99882.90;2062363;86;28643;-66
2021/07/27 01:08:26;;;;;;;9.93;7.22;;;;;;;19.97;68.05;99885.91;2065373;86;31061;-66
2021/07/27 01:11:30;;;;;;;9.10;6.90;;;;;;;19.94;68.13;99885.68;2062045;86;33007;-66
2021/07/27 01:14:37;;;;;;;7.33;6.17;;;;;;;19.92;68.23;99880.05;2061760;86;29994;-66
2021/07/27 01:17:40;;;;;;;9.85;6.78;;;;;;;19.88;68.32;99884.41;2061441;86;27899;-66
2021/07/27 01:37:22;;;;;;;9.38;6.72;;;;;;;19.84;68.49;99883.47;2061251;86;28689;-66
2021/07/27 01:40:39;;;;;;;9.35;7.10;;;;;;;19.57;68.92;99889.17;2062349;86;31275;-65
2021/07/27 01:43:39;;;;;;;10.40;6.70;;;;;;;19.56;69.11;99892.89;2060591;86;33293;-65
2021/07/27 01:46:42;;;;;;;11.90;7.17;;;;;;;19.46;69.11;99886.11;2061278;86;29334;-66
2021/07/27 01:49:46;;;;;;;8.13;6.65;;;;;;;19.47;69.16;99898.70;2042701;86;27975;-65
2021/07/27 01:52:49;;;;;;;12.58;7.40;;;;;;;19.44;69.24;99895.74;2062421;86;28618;-66
2021/07/27 01:55:53;;;;;;;9.48;7.58;;;;;;;19.40;69.33;99894.82;1996969;87;31071;-66
2021/07/27 01:58:57;;;;;;;9.70;6.67;;;;;;;19.37;69.42;99901.89;2028153;87;33000;-66
2021/07/27 02:02:00;;;;;;;7.33;6.62;;;;;;;19.33;69.50;99901.33;2071481;85;29313;-66
2021/07/27 02:05:04;;;;;;;9.08;7.03;;;;;;;19.27;69.55;99899.20;2071390;85;27712;-66
2021/07/27 02:08:08;;;;;;;9.98;7.53;;;;;;;19.23;69.57;99904.04;2071439;85;33892;-66
2021/07/27 02:11:14;;;;;;;7.83;6.87;;;;;;;19.20;69.82;99909.75;2071378;85;30998;-67
2021/07/27 02:14:17;;;;;;;8.10;6.78;;;;;;;19.13;69.72;99912.18;2070856;85;33014;-67
2021/07/27 02:17:20;;;;;;;10.82;7.08;;;;;;;19.11;69.82;99913.33;2071251;85;29403;-67
2021/07/27 02:20:23;;;;;;;9.63;7.12;;;;;;;19.06;69.92;99910.17;2071276;85;27548;-67
2021/07/27 02:23:27;;;;;;;10.50;6.65;;;;;;;19.00;70.08;99912.11;2071271;85;28642;-67
2021/07/27 02:26:30;;;;;;;10.30;7.25;;;;;;;18.92;70.06;99919.05;2071472;85;31259;-67
2021/07/27 02:29:34;;;;;;;11.97;7.47;;;;;;;18.87;70.02;99931.33;2071123;85;33026;-67
2021/07/27 02:32:36;;;;;;;10.95;7.50;;;;;;;18.79;70.11;99923.88;2071284;85;29332;-67
2021/07/27 02:35:42;;;;;;;9.45;6.95;;;;;;;18.74;70.40;99916.65;2071210;85;27713;-67
2021/07/27 02:38:44;;;;;;;8.65;6.78;;;;;;;18.68;70.32;99914.88;2071108;85;28647;-67
2021/07/27 02:41:48;;;;;;;9.13;8.10;;;;;;;18.61;70.38;99914.20;2071113;85;31070;-67
2021/07/27 02:44:50;;;;;;;11.68;6.87;;;;;;;18.54;70.53;99915.23;2007438;87;32863;-66
2021/07/27 02:47:54;;;;;;;9.15;6.78;;;;;;;18.47;70.78;99919.50;2028229;87;29295;-67
2021/07/27 02:51:01;;;;;;;12.93;8.13;;;;;;;18.38;70.82;99909.81;2071247;85;27722;-67
2021/07/27 02:54:09;;;;;;;8.55;6.83;;;;;;;18.33;70.82;99906.67;2044026;85;28780;-67
2021/07/27 02:57:13;;;;;;;12.95;7.70;;;;;;;18.30;70.96;99904.72;2067277;84;30984;-67
2021/07/27 03:00:17;;;;;;;11.48;8.05;;;;;;;18.27;71.10;99897.72;2062113;86;33690;-67
2021/07/27 03:03:19;;;;;;;7.85;7.05;;;;;;;18.24;71.25;99907.48;2066073;85;29398;-67
2021/07/27 03:06:22;;;;;;;14.05;9.35;;;;;;;18.21;71.25;99915.88;2062485;86;27706;-67
2021/07/27 03:09:32;;;;;;;10.70;7.45;;;;;;;18.18;71.51;99918.88;2062193;86;28695;-67
2021/07/27 03:12:34;;;;;;;11.45;8.13;;;;;;;18.18;71.66;99912.10;2062343;86;31211;-67
2021/07/27 03:15:36;;;;;;;12.10;8.15;;;;;;;18.17;71.86;99911.74;2062159;86;33013;-67
2021/07/27 03:18:40;;;;;;;10.03;8.25;;;;;;;18.10;71.88;99895.16;2062373;86;29284;-66
2021/07/27 03:21:42;;;;;;;10.05;8.08;;;;;;;18.18;72.08;99908.88;2062225;86;27782;-66
2021/07/27 03:24:45;;;;;;;9.55;8.15;;;;;;;18.20;72.04;99916.38;1995350;88;28646;-66
2021/07/27 03:27:51;;;;;;;10.80;7.35;;;;;;;18.24;72.28;99927.81;2016566;86;31019;-66
2021/07/27 03:30:53;;;;;;;16.12;7.67;;;;;;;18.28;72.37;99936.05;2020890;87;33689;-66
2021/07/27 03:33:57;;;;;;;9.35;8.25;;;;;;;18.32;72.39;99928.48;2012528;87;29370;-65
2021/07/27 03:37:00;;;;;;;10.38;7.83;;;;;;;18.38;72.45;99931.52;2012832;88;27824;-66
2021/07/27 03:40:05;;;;;;;9.78;7.67;;;;;;;18.47;72.46;99934.42;2012766;88;28702;-67
2021/07/27 03:43:07;;;;;;;10.30;7.37;;;;;;;18.57;72.54;99947.52;2013111;88;31077;-67
2021/07/27 03:46:10;;;;;;;9.35;8.03;;;;;;;18.67;72.49;99952.50;1995946;87;33057;-67
2021/07/27 03:49:12;;;;;;;12.03;8.90;;;;;;;18.77;72.45;99956.60;2012821;88;29324;-67
2021/07/27 03:52:15;;;;;;;12.28;8.28;;;;;;;18.89;72.40;99961.40;2013046;88;27549;-67
2021/07/27 03:55:18;;;;;;;14.50;9.50;;;;;;;19.00;72.31;99962.33;2012578;88;28708;-67
2021/07/27 03:58:20;;;;;;;12.33;8.35;;;;;;;19.12;72.22;99970.71;2022079;87;31716;-67
2021/07/27 04:01:23;;;;;;;17.37;10.38;;;;;;;19.24;72.09;99975.02;2008317;87;33066;-67
2021/07/27 04:04:26;;;;;;;12.93;9.38;;;;;;;19.34;71.98;99980.46;2049955;86;29398;-66
2021/07/27 04:07:29;;;;;;;12.63;7.87;;;;;;;19.40;71.82;99979.91;2030062;87;27809;-66
2021/07/27 04:10:33;;;;;;;12.88;8.00;;;;;;;19.46;71.70;99984.39;2030202;87;28651;-66
2021/07/27 04:13:36;;;;;;;15.35;8.58;;;;;;;19.49;71.61;99977.33;2030233;87;32413;-67
2021/07/27 04:16:40;;;;;;;19.12;8.25;;;;;;;19.54;71.57;99975.05;2050380;86;33673;-67
2021/07/27 04:19:44;;;;;;;10.23;8.18;;;;;;;19.56;71.43;99976.61;2030126;87;29317;-67
2021/07/27 04:22:49;;;;;;;11.80;7.53;;;;;;;19.60;71.38;99985.36;2050572;86;27702;-66
2021/07/27 04:25:51;;;;;;;15.38;7.35;;;;;;;19.64;71.36;99981.33;2030094;87;28664;-67
2021/07/27 04:28:53;;;;;;;11.73;6.60;;;;;;;19.66;71.30;99982.05;2080544;85;31030;-67
2021/07/27 04:31:55;;;;;;;10.55;7.20;;;;;;;19.69;71.28;99981.77;2064483;85;32941;-67
2021/07/27 04:34:59;;;;;;;10.32;7.50;;;;;;;19.76;71.20;99976.62;2080208;84;29536;-67
2021/07/27 04:38:01;;;;;;;18.17;8.30;;;;;;;19.84;71.23;99982.20;2088120;85;27839;-67
2021/07/27 04:41:08;;;;;;;14.13;7.95;;;;;;;19.97;71.10;99994.15;2087684;85;28638;-67
2021/07/27 04:44:10;;;;;;;11.65;6.78;;;;;;;20.10;71.09;99995.22;2080527;85;31724;-67
2021/07/27 04:47:13;;;;;;;11.33;7.45;;;;;;;20.27;71.01;99992.23;2080039;85;33008;-67
2021/07/27 04:50:16;;;;;;;12.13;6.95;;;;;;;20.43;70.74;99991.63;2080480;85;29325;-67
2021/07/27 04:53:23;;;;;;;11.00;6.95;;;;;;;20.51;70.52;99971.84;2080560;85;27733;-67
2021/07/27 04:56:27;;;;;;;15.35;6.95;;;;;;;20.72;70.30;99980.28;2080265;85;28751;-66
2021/07/27 04:59:33;;;;;;;11.88;7.05;;;;;;;20.86;70.04;99977.58;2063639;85;31024;-66
2021/07/27 05:02:39;;;;;;;13.80;6.42;;;;;;;20.98;69.90;99980.47;2062006;86;33080;-71
2021/07/27 05:05:41;;;;;;;14.68;6.78;;;;;;;21.13;69.69;99988.97;2017816;86;29344;-72
2021/07/27 05:08:45;;;;;;;18.55;7.37;;;;;;;21.30;69.39;99995.96;1980716;89;27636;-77
2021/07/27 05:12:38;;;;;;;13.88;6.40;;;;;;;21.41;69.06;100001.21;1980816;89;28653;-72
2021/07/27 05:15:20;;;;;;;13.65;7.22;;;;;;;21.47;68.69;100001.09;1954497;87;28598;-75
2021/07/27 05:18:15;;;;;;;15.72;7.42;;;;;;;21.52;68.58;100009.16;2000375;88;30348;-67
2021/07/27 05:21:19;;;;;;;10.18;6.72;;;;;;;21.59;68.35;100001.21;1996006;89;29341;-67
2021/07/27 05:24:22;;;;;;;17.60;8.88;;;;;;;21.68;68.12;100013.92;2012695;88;27927;-66
2021/07/27 05:27:26;;;;;;;10.10;7.17;;;;;;;21.76;67.86;100009.05;2012481;87;28725;-66
2021/07/27 05:30:30;;;;;;;12.78;8.25;;;;;;;21.89;67.64;100014.64;2024232;87;31021;-66
2021/07/27 05:33:33;;;;;;;13.90;8.88;;;;;;;22.03;67.40;100015.94;2025183;87;33047;-65
2021/07/27 05:36:38;;;;;;;15.83;11.43;;;;;;;22.19;67.37;100007.88;2024692;87;29385;-67
2021/07/27 05:39:42;;;;;;;22.70;10.70;;;;;;;22.74;66.81;100024.49;1980781;88;28022;-67
2021/07/27 05:42:46;;;;;;;11.78;9.68;;;;;;;23.38;66.35;100025.95;1980842;88;28660;-68
2021/07/27 05:45:51;;;;;;;16.57;10.13;;;;;;;23.82;65.50;100023.47;2010096;88;31109;-71
2021/07/27 05:48:58;;;;;;;13.93;7.87;;;;;;;24.50;64.99;100021.41;1983793;88;32964;-75
2021/07/27 05:52:04;;;;;;;12.40;7.90;;;;;;;25.33;64.22;100023.34;1994760;88;30109;-73
2021/07/27 05:55:09;;;;;;;7.42;6.03;;;;;;;26.08;62.74;100029.73;1996000;89;27893;-68
2021/07/27 06:01:34;;;;;;;8.28;5.95;;;;;;;27.36;60.66;100027.52;1958909;90;31169;-65
2021/07/27 06:04:40;;;;;;;12.30;6.80;;;;;;;27.87;58.92;100034.87;1949379;89;33624;-66
2021/07/27 06:07:47;;;;;;;8.58;5.20;;;;;;;28.34;58.20;100036.16;1964671;90;29200;-65
2021/07/27 06:10:51;;;;;;;8.73;5.25;;;;;;;28.76;57.04;100029.39;1988397;89;46108;-65
2021/07/27 06:13:54;;;;;;;6.45;5.78;;;;;;;29.01;55.97;100027.52;1966309;90;28733;-65
2021/07/27 06:16:58;;;;;;;11.73;6.43;;;;;;;29.07;54.96;100025.30;1967145;88;31078;-66
2021/07/27 06:20:00;;;;;;;6.17;5.57;;;;;;;29.17;54.47;100030.44;1956707;89;34375;-65
2021/07/27 06:23:02;;;;;;;12.55;5.53;;;;;;;29.37;54.25;100031.92;1983677;89;29344;-65
2021/07/27 06:26:05;;;;;;;12.55;5.53;;;;;;;29.85;53.35;100026.84;1983393;89;27819;-66
2021/07/27 06:29:08;;;;;;;11.45;5.90;;;;;;;30.11;52.70;100016.07;1983462;89;28703;-65
2021/07/27 06:32:12;;;;;;;8.95;5.45;;;;;;;30.40;52.16;100026.36;1982999;89;31146;-65
2021/07/27 06:35:19;;;;;;;10.15;5.40;;;;;;;30.95;51.52;100021.08;1983648;89;33016;-64
2021/07/27 06:38:24;;;;;;;10.13;5.03;;;;;;;31.57;50.40;100027.53;1983594;89;29387;-65
2021/07/27 06:41:26;;;;;;;12.53;5.28;;;;;;;32.01;49.53;100030.47;1983917;89;27975;-65
2021/07/27 06:44:34;;;;;;;7.22;5.30;;;;;;;32.43;48.38;100019.72;1982655;89;28737;-64
2021/07/27 06:47:36;;;;;;;4.97;4.33;;;;;;;32.82;47.73;100023.72;1984003;89;31099;-66
2021/07/27 06:50:40;;;;;;;10.95;5.00;;;;;;;33.37;47.11;100021.99;1984070;89;32973;-65
2021/07/27 06:53:45;;;;;;;7.60;4.40;;;;;;;33.85;46.29;100020.24;1983907;89;29242;-65
2021/07/27 06:56:47;;;;;;;7.45;4.90;;;;;;;34.22;45.04;100027.06;1984131;89;27661;-65
2021/07/27 06:59:50;;;;;;;6.30;4.28;;;;;;;34.58;44.31;100025.70;1973542;89;28633;-64
2021/07/27 07:02:56;;;;;;;5.00;3.80;;;;;;;34.88;43.90;100016.34;1953231;89;31053;-64
2021/07/27 07:06:05;;;;;;;8.00;4.37;;;;;;;35.08;42.32;100022.39;1950716;91;33108;-64
2021/07/27 07:09:08;;;;;;;9.28;4.85;;;;;;;35.32;41.86;100020.94;1953549;91;29345;-64
2021/07/27 07:12:13;;;;;;;9.90;4.10;;;;;;;35.62;41.11;100017.08;1953491;90;27940;-64
2021/07/27 07:15:16;;;;;;;6.00;3.95;;;;;;;35.98;40.44;100016.36;1953521;91;28659;-65
2021/07/27 07:18:19;;;;;;;7.80;4.00;;;;;;;36.28;39.55;100020.75;1953367;91;31044;-65
2021/07/27 07:21:26;;;;;;;5.55;3.80;;;;;;;36.65;38.90;100016.58;1953365;91;32988;-65
2021/07/27 07:24:34;;;;;;;6.12;3.67;;;;;;;36.89;38.07;100020.55;1949478;90;28034;-65
2021/07/27 07:27:37;;;;;;;8.90;3.75;;;;;;;37.14;37.06;100011.69;1953368;89;27603;-65
2021/07/27 07:30:40;;;;;;;5.87;4.30;;;;;;;37.38;36.76;100009.45;1953702;91;28716;-65
2021/07/27 07:33:43;;;;;;;5.17;4.25;;;;;;;37.55;35.87;100007.97;1953570;89;31041;-65
2021/07/27 07:36:45;;;;;;;;;;;;;;;37.70;35.07;100002.24;1955503;91;33104;-64
2021/07/27 07:39:47;;;;;;;5.30;3.60;;;;;;;37.72;34.56;100000.60;1953388;91;29361;-64
2021/07/27 07:42:51;;;;;;;6.75;4.08;;;;;;;37.75;34.32;100005.09;1953319;89;33182;-64
2021/07/27 07:45:57;;;;;;;7.37;4.53;;;;;;;37.62;34.21;100002.73;1931110;91;28015;-65
2021/07/27 07:49:03;;;;;;;7.00;4.30;;;;;;;37.82;34.39;100007.10;1932117;91;31727;-64
2021/07/27 07:52:06;;;;;;;6.50;4.33;;;;;;;37.95;33.99;99996.08;1953322;91;32980;-64
2021/07/27 07:55:12;;;;;;;4.80;4.30;;;;;;;38.08;33.77;99995.33;1953488;90;29332;-64
2021/07/27 07:58:14;;;;;;;6.85;3.58;;;;;;;38.00;32.70;99995.27;1953551;90;27899;-65
2021/07/27 08:01:17;;;;;;;8.68;3.77;;;;;;;37.32;32.57;100005.44;1946444;90;28632;-66
2021/07/27 08:04:19;;;;;;;4.55;4.08;;;;;;;36.59;33.00;99991.09;1975619;90;31102;-65
2021/07/27 08:07:23;;;;;;;6.47;4.03;;;;;;;36.10;33.10;100009.85;1975076;90;33024;-65
2021/07/27 08:10:28;;;;;;;6.15;3.85;;;;;;;35.95;33.53;100007.11;1945551;90;27791;-65
2021/07/27 08:13:32;;;;;;;4.40;4.00;;;;;;;36.07;33.55;100008.42;1975154;90;27941;-64
2021/07/27 08:16:36;;;;;;;6.15;4.00;;;;;;;36.21;34.18;100017.28;1975383;90;28679;-64
2021/07/27 08:19:41;;;;;;;5.58;4.33;;;;;;;36.34;34.04;100021.67;1972379;88;31039;-65
2021/07/27 08:22:53;;;;;;;6.83;4.12;;;;;;;36.45;33.89;100019.92;1972295;88;32989;-65
2021/07/27 08:25:56;;;;;;;7.55;4.45;;;;;;;36.38;33.31;100026.19;1975197;90;29346;-64
2021/07/27 08:29:01;;;;;;;6.13;4.17;;;;;;;36.06;33.23;100026.25;1946879;90;27757;-64
2021/07/27 08:32:11;;;;;;;8.75;5.60;;;;;;;35.77;33.28;100025.42;1971929;88;28792;-64
2021/07/27 08:35:16;;;;;;;7.80;3.80;;;;;;;35.62;33.66;100033.80;1975711;90;31204;-65
2021/07/27 08:38:26;;;;;;;7.65;3.95;;;;;;;35.52;33.82;100037.23;1973544;90;33061;-65
2021/07/27 08:41:30;;;;;;;6.42;4.03;;;;;;;35.38;34.08;100035.25;1972199;90;29341;-65
2021/07/27 08:44:36;;;;;;;5.90;4.40;;;;;;;35.30;34.07;100039.83;1974926;90;27933;-65
2021/07/27 08:47:45;;;;;;;5.90;4.15;;;;;;;35.17;33.89;100038.70;1975136;90;28862;-64
2021/07/27 08:50:53;;;;;;;12.18;4.45;;;;;;;34.90;34.10;100040.08;1971351;90;28119;-65
2021/07/27 08:54:01;;;;;;;7.45;4.30;;;;;;;34.64;34.30;100040.05;1975190;90;32968;-64
2021/07/27 08:57:14;;;;;;;9.63;4.65;;;;;;;34.47;34.72;100038.52;1947732;90;29347;-65
2021/07/27 09:00:23;;;;;;;5.42;4.72;;;;;;;34.25;34.85;100036.31;1968240;89;27933;-65
2021/07/27 09:03:31;;;;;;;7.05;4.58;;;;;;;34.38;35.07;100044.42;1960613;90;28784;-66
2021/07/27 09:06:34;;;;;;;7.00;4.40;;;;;;;34.54;35.06;100044.27;2025198;87;31068;-64
2021/07/27 09:09:41;;;;;;;4.08;3.60;;;;;;;34.72;35.19;100050.79;2025039;87;33098;-64
2021/07/27 09:13:13;;;;;;;7.12;4.22;;;;;;;34.98;34.95;100037.50;1988493;87;29605;-65
2021/07/27 09:16:17;;;;;;;5.87;4.28;;;;;;;35.12;34.49;100052.83;2014509;87;28115;-65
2021/07/27 09:19:20;;;;;;;5.92;3.87;;;;;;;35.10;34.15;100055.02;2025414;87;28729;-64
2021/07/27 09:22:26;;;;;;;8.15;4.15;;;;;;;35.24;33.94;100054.73;2026062;87;31301;-65
2021/07/27 09:25:30;;;;;;;5.80;3.20;;;;;;;35.27;33.58;100055.64;2025925;87;33070;-65
2021/07/27 09:28:33;;;;;;;6.00;3.77;;;;;;;35.36;33.53;100050.53;2021790;87;29335;-65
2021/07/27 09:31:35;;;;;;;7.67;4.17;;;;;;;35.41;33.30;100057.05;2000438;87;27706;-64
2021/07/27 09:34:38;;;;;;;4.58;3.95;;;;;;;35.31;32.95;100042.92;2025930;87;28501;-66
2021/07/27 09:37:41;;;;;;;5.85;3.90;;;;;;;35.03;32.81;100045.94;2025688;87;31097;-65
2021/07/27 09:40:58;;;;;;;5.42;4.30;;;;;;;34.81;33.00;100044.31;2021729;87;33026;-64
2021/07/27 09:44:07;;;;;;;6.20;4.12;;;;;;;34.81;33.39;100049.34;2022545;87;29387;-65
2021/07/27 09:47:09;;;;;;;5.62;3.98;;;;;;;34.93;33.80;100052.12;2000287;87;27633;-65
2021/07/27 09:50:12;;;;;;;8.80;4.40;;;;;;;35.10;34.08;100052.77;2026053;87;28654;-64
2021/07/27 09:53:16;;;;;;;7.07;4.30;;;;;;;35.17;34.22;100053.48;2026281;87;31037;-65
2021/07/27 09:56:19;;;;;;;4.60;4.20;;;;;;;35.18;33.59;100057.96;2025877;87;32977;-64
2021/07/27 09:59:25;;;;;;;7.00;3.70;;;;;;;35.00;32.99;100056.16;2026033;87;29342;-64
2021/07/27 10:02:28;;;;;;;4.45;4.05;;;;;;;34.76;32.38;100056.70;2021024;87;27939;-65
2021/07/27 10:05:31;;;;;;;6.00;4.00;;;;;;;34.59;32.70;100061.61;1978687;87;28684;-65
2021/07/27 10:08:37;;;;;;;5.90;3.80;;;;;;;34.50;32.89;100061.13;2024993;87;31087;-65
2021/07/27 10:11:44;;;;;;;5.62;3.92;;;;;;;34.43;32.53;100063.72;2025052;87;32829;-65
2021/07/27 10:14:50;;;;;;;5.42;3.65;;;;;;;34.27;32.70;100056.36;2022823;87;29336;-65
2021/07/27 10:17:54;;;;;;;5.10;4.03;;;;;;;34.18;33.11;100053.08;2025157;87;27748;-65
2021/07/27 10:21:26;;;;;;;3.98;3.58;;;;;;;34.21;32.67;100046.22;2025056;87;28733;-64
2021/07/27 10:24:43;;;;;;;4.40;3.35;;;;;;;34.23;33.41;100049.61;2025811;87;31055;-64
2021/07/27 10:27:54;;;;;;;9.03;3.70;;;;;;;34.28;33.13;100053.89;2022477;87;33096;-65
2021/07/27 10:31:07;;;;;;;3.83;3.37;;;;;;;34.21;32.71;100040.09;2025835;87;29346;-65
2021/07/27 10:34:16;;;;;;;3.77;3.00;;;;;;;34.09;32.80;100040.63;2022724;87;27867;-64
2021/07/27 10:37:19;;;;;;;4.25;3.65;;;;;;;33.88;32.96;100033.67;2025842;87;28721;-64
2021/07/27 10:40:30;;;;;;;4.53;4.00;;;;;;;33.86;32.78;100029.72;2025926;87;31033;-65
2021/07/27 10:43:33;;;;;;;6.08;4.30;;;;;;;33.70;32.59;100033.17;2025100;87;33200;-65
2021/07/27 10:46:46;;;;;;;5.27;3.80;;;;;;;33.54;33.05;100033.31;2025433;86;29375;-64
2021/07/27 10:50:11;;;;;;;3.83;3.40;;;;;;;33.47;33.70;100029.23;2013113;87;28025;-64
2021/07/27 10:53:22;;;;;;;6.47;3.85;;;;;;;33.51;33.94;100026.28;2021482;87;27919;-65
2021/07/27 10:56:29;;;;;;;7.80;3.92;;;;;;;33.49;34.09;100024.30;2021399;87;32360;-65
2021/07/27 10:59:36;;;;;;;8.58;4.85;;;;;;;33.55;34.20;100030.28;2025311;87;32987;-65
2021/07/27 11:02:39;;;;;;;4.45;4.05;;;;;;;33.48;33.93;100029.55;2003751;87;29330;-65
2021/07/27 11:05:41;;;;;;;4.20;3.77;;;;;;;33.51;34.44;100031.83;1997031;89;27670;-65
2021/07/27 11:08:46;;;;;;;8.33;4.12;;;;;;;33.50;34.18;100032.94;1996624;87;28653;-64
2021/07/27 11:11:50;;;;;;;4.35;3.50;;;;;;;33.48;34.23;100029.55;1929807;91;31043;-64
2021/07/27 11:15:10;;;;;;;6.83;4.00;;;;;;;33.52;33.98;100031.30;1996218;88;32974;-65
2021/07/27 11:18:17;;;;;;;4.60;4.15;;;;;;;33.53;34.08;100036.61;1996300;89;29184;-65
2021/07/27 11:21:22;;;;;;;4.95;4.22;;;;;;;33.49;34.24;100036.80;1995493;89;27651;-65
2021/07/27 11:24:29;;;;;;;6.45;4.00;;;;;;;33.37;33.60;100031.19;1972723;89;28653;-64
2021/07/27 11:27:32;;;;;;;8.33;4.08;;;;;;;33.24;34.05;100025.22;1948301;91;31037;-64
2021/07/27 11:30:40;;;;;;;6.97;3.92;;;;;;;33.16;34.10;100025.56;1992909;89;33171;-64
2021/07/27 11:33:51;;;;;;;8.35;3.85;;;;;;;33.22;34.77;100030.16;1992415;89;29340;-65
2021/07/27 11:36:56;;;;;;;4.03;3.50;;;;;;;33.36;35.11;100026.71;1992080;89;27847;-65
2021/07/27 11:40:02;;;;;;;6.35;4.10;;;;;;;33.34;34.39;100027.45;1918868;91;28622;-65
2021/07/27 11:43:13;;;;;;;6.72;3.62;;;;;;;33.34;34.32;100024.67;1996671;89;31088;-65
2021/07/27 11:46:19;;;;;;;5.55;3.92;;;;;;;33.37;34.70;100025.63;1944780;91;33695;-65
2021/07/27 11:49:23;;;;;;;5.30;4.03;;;;;;;33.45;34.51;100023.91;1996752;88;29327;-64
2021/07/27 11:52:29;;;;;;;5.58;3.62;;;;;;;33.49;34.78;100027.08;1945411;91;27916;-64
2021/07/27 11:55:39;;;;;;;8.30;3.98;;;;;;;33.54;34.49;100023.59;1993703;89;28637;-65
2021/07/27 11:58:44;;;;;;;6.05;3.95;;;;;;;33.55;34.58;100022.51;1996860;89;31067;-64
2021/07/27 12:01:53;;;;;;;9.83;3.92;;;;;;;33.59;34.53;100023.19;1949227;88;29877;-65
2021/07/27 12:05:01;;;;;;;8.78;3.70;;;;;;;33.63;34.32;100023.55;1922268;92;29392;-65
2021/07/27 12:08:09;;;;;;;6.33;4.12;;;;;;;33.57;34.23;100018.40;1989607;89;28044;-65
2021/07/27 12:11:12;;;;;;;8.30;3.40;;;;;;;33.64;34.42;100008.58;1959500;90;28668;-65
2021/07/27 12:14:16;;;;;;;10.55;4.05;;;;;;;33.73;34.12;100011.87;1925755;92;31103;-65
2021/07/27 12:17:20;;;;;;;8.20;3.67;;;;;;;33.67;33.97;100002.55;1959171;90;33013;-64
2021/07/27 12:20:24;;;;;;;;;;;;;;;33.58;33.95;100002.05;1940195;90;29333;-64
2021/07/27 12:23:27;;;;;;;11.53;3.90;;;;;;;33.44;33.59;100000.55;1953772;91;27720;-64
2021/07/27 12:26:30;;;;;;;4.83;3.83;;;;;;;33.30;34.00;99989.59;1933921;91;28664;-64
2021/07/27 12:29:37;;;;;;;4.55;3.12;;;;;;;33.22;33.81;99986.30;1931060;91;31095;-64
2021/07/27 12:32:40;;;;;;;6.83;4.30;;;;;;;33.05;33.77;99974.97;1953375;91;32975;-64
2021/07/27 12:35:43;;;;;;;8.10;5.15;;;;;;;32.96;34.04;99978.08;1953250;89;29347;-64
2021/07/27 12:38:46;;;;;;;7.30;3.77;;;;;;;32.81;34.30;99978.46;1953120;89;27931;-64
2021/07/27 12:41:52;;;;;;;6.72;4.22;;;;;;;32.64;34.21;99975.44;1949658;89;29129;-64
2021/07/27 12:45:00;;;;;;;4.00;3.60;;;;;;;32.44;34.37;99974.24;1949556;91;31284;-63
2021/07/27 12:48:06;;;;;;;8.88;4.10;;;;;;;32.29;34.92;99971.85;1934142;91;33001;-63
2021/07/27 12:51:15;;;;;;;5.33;3.95;;;;;;;32.15;35.07;99968.31;1949272;91;29337;-65
2021/07/27 12:54:24;;;;;;;9.30;4.35;;;;;;;32.03;35.30;99959.05;1953089;91;27639;-64
2021/07/27 12:57:32;;;;;;;4.08;3.67;;;;;;;31.86;35.27;99951.30;1930718;91;28632;-65
2021/07/27 13:00:34;;;;;;;6.53;4.50;;;;;;;31.78;35.36;99948.80;1953009;91;31140;-65
2021/07/27 13:03:39;;;;;;;8.88;6.47;;;;;;;31.59;35.36;99951.49;1961801;89;32971;-64
2021/07/27 13:06:47;;;;;;;11.93;5.95;;;;;;;31.44;35.62;99951.79;1960292;90;29415;-64
2021/07/27 13:09:52;;;;;;;4.85;4.22;;;;;;;31.34;35.67;99952.27;1996423;87;27968;-64
2021/07/27 13:12:56;;;;;;;9.18;4.05;;;;;;;31.30;35.77;99946.86;2025255;87;28658;-65
2021/07/27 13:16:04;;;;;;;6.28;4.20;;;;;;;31.27;36.10;99952.87;1987274;87;31260;-65
2021/07/27 13:19:11;;;;;;;5.90;4.15;;;;;;;31.35;36.02;99946.22;1995317;87;33044;-65
2021/07/27 13:22:18;;;;;;;5.53;4.28;;;;;;;31.40;36.02;99945.55;2021012;87;29433;-65
2021/07/27 13:25:21;;;;;;;5.28;4.35;;;;;;;31.42;36.26;99935.94;1999929;87;27736;-65
2021/07/27 13:28:25;;;;;;;6.67;4.30;;;;;;;31.50;36.25;99933.44;2025564;87;28667;-65
2021/07/27 13:31:27;;;;;;;4.90;4.40;;;;;;;31.61;36.15;99932.70;2025865;87;31063;-64
2021/07/27 13:34:30;;;;;;;4.75;4.17;;;;;;;31.66;35.63;99918.20;2025601;87;33199;-65
2021/07/27 13:37:33;;;;;;;6.62;3.80;;;;;;;31.64;36.13;99925.34;2025577;87;29360;-65
2021/07/27 13:40:35;;;;;;;8.43;4.40;;;;;;;31.65;35.73;99922.88;2025284;87;27825;-64
2021/07/27 13:43:44;;;;;;;;;;;;;;;31.64;35.84;99918.97;1990567;87;28642;-64
2021/07/27 13:46:52;;;;;;;6.75;4.17;;;;;;;31.69;35.43;99920.50;2017994;86;31194;-64
2021/07/27 13:50:03;;;;;;;5.75;4.20;;;;;;;31.70;35.59;99917.21;2022246;87;32989;-64
2021/07/27 13:53:08;;;;;;;5.00;3.45;;;;;;;31.65;35.74;99914.57;2021953;87;29293;-64
2021/07/27 13:56:14;;;;;;;5.15;3.52;;;;;;;31.66;34.75;99920.98;1996387;87;28018;-64
2021/07/27 13:59:19;;;;;;;4.30;3.80;;;;;;;31.60;34.28;99919.96;1995349;87;28655;-64
2021/07/27 14:02:24;;;;;;;5.80;3.65;;;;;;;31.64;34.70;99921.73;1990921;87;31027;-64
2021/07/27 14:05:32;;;;;;;5.08;3.98;;;;;;;31.72;34.33;99922.02;1912123;92;34858;-65
2021/07/27 14:08:38;;;;;;;5.00;4.60;;;;;;;31.76;34.14;99921.89;1880932;94;29381;-63
2021/07/27 14:11:51;;;;;;;4.87;4.37;;;;;;;31.82;34.14;99916.81;1912403;92;28073;-65
2021/07/27 14:14:54;;;;;;;4.78;4.30;;;;;;;31.82;33.79;99905.21;1880747;94;28681;-64
2021/07/27 14:18:09;;;;;;;5.90;4.20;;;;;;;31.84;34.28;99909.68;1911612;92;31078;-66
2021/07/27 14:21:11;;;;;;;7.08;4.08;;;;;;;31.75;33.83;99914.66;1878065;94;33114;-67
2021/07/27 14:27:21;;;;;;;6.72;4.30;;;;;;;31.57;34.15;99904.31;1805824;98;28068;-65
2021/07/27 14:30:26;;;;;;;4.87;3.95;;;;;;;31.50;34.13;99911.28;1791798;99;28688;-73
2021/07/27 14:33:29;;;;;;;9.03;4.97;;;;;;;31.42;34.44;99906.03;1792879;99;32108;-71
2021/07/27 14:36:31;;;;;;;5.83;3.90;;;;;;;31.42;34.64;99909.64;1788047;99;33063;-71
2021/07/27 14:39:34;;;;;;;6.95;4.53;;;;;;;31.49;34.64;99899.38;1784283;99;29416;-68
2021/07/27 14:42:37;;;;;;;7.40;4.53;;;;;;;31.63;34.96;99901.48;1784480;99;27864;-68
2021/07/27 14:45:39;;;;;;;6.95;4.28;;;;;;;31.78;35.26;99905.87;1784290;99;28679;-69